SEASEATTLE-TACOMA INTL
METARs for nearby airports:
N 0 432' KSEA 120121Z 20015G26KT 10SM FEW009 BKN019 OVC100 09/07 A2966
NE 4 32' KRNT 120053Z 17011G16KT 10SM BKN013 BKN065 OVC100 10/09 A2967
N 4 21' KBFI 120053Z 17008KT 10SM -RA BKN014 BKN020 OVC090 10/08 A2965
SW 15 294' KTIW 120053Z 19013G19KT 10SM -RA BKN014 BKN050 OVC070 09/08 A2969
W 18 444' KPWT 120056Z 19012KT 10SM FEW055 BKN110 08/08 A2965
S 19 322' KTCM 120102Z 21012KT 10SM SCT023 SCT035 BKN055 09/09 A2971
S 20 537' KPLU 120115Z VRB06G14KT 180V240 7SM -DZ FEW012 SCT027 BKN035 09/09 A2973
SW 24 300' KGRF 120059Z 17008KT 10SM FEW026 SCT033 09/09 A2971
N 27 607' KPAE 120121Z 09006KT 10SM FEW007 SCT031 BKN075 08/07 A2961
W 36 272' KSHN 120120Z 27015G24KT 1 3/4SM +RA BR SCT012 BKN019 OVC032 09/07 A2969
SW 37 207' KOLM 120054Z 21008KT 10SM FEW023 BKN035 OVC055 09/07 A2973
N 43 141' KAWO 120056Z 14008KT 10SM -RA FEW015 BKN060 OVC075 08/08 A2965
SW 53 177' KCLS 120115Z 23004KT 9SM SCT031 BKN044 OVC070 09/08 A2971
N 55 47' KNUW 120056Z 26007KT 10SM SCT050 SCT080 BKN110 BKN150 BKN210 10/08 A2964
NW 60 13' KNOW 120110Z 28010G14KT 10SM BKN065 BKN075 OVC090 09/06 A2964
N 61 145' KBVS 120110Z 00000KT 10SM FEW120 07/07 A2962
NW 62 291' KCLM 120053Z 25005KT 10SM FEW038 BKN070 OVC085 08/06 A2963
NW 70 112' KFHR 120053Z VRB06KT 10SM CLR 08/06 A2962
SW 72 17' KHQM 120053Z 24018KT 3SM -RA BR FEW025 BKN050 OVC075 11/09 A2972
E 76 1763' KELN 120111Z 32005KT 4SM -RA BR OVC011 01/M01 A2967
N 79 34' KORS 120115Z 19011KT 150V230 10SM SCT035 BKN041 OVC070 10/07 A2959
N 81 171' KBLI 120053Z 18009KT 10SM FEW100 09/04 A2959
S 83 20' KKLS 120119Z 00000KT 9SM RA FEW018 OVC041 09/08 A2980
NW 84 64' CYYJ 120100Z 23008G20KT 220V280 15SM -RA FEW025 BKN040 BKN055 OVC076 08/05 A2958
E 85 1248' KEAT 120106Z 27003KT 7SM -FZRA OVC007 M01/M03 A2969
SE 89 1098' KYKM 120113Z 21004KT 7SM BKN010 OVC038 01/M01 A2970
W 95 193' KUIL 120053Z 27013G17KT 10SM SCT029 BKN043 BKN075 09/08 A2970
TAFs for nearby airports:
N 0 432' KSEA KSEA 112337Z 1200/1306 19020G25KT 5SM -RA BR SCT008 BKN010 OVC030
  FM120300 21015G20KT P6SM -SHRA BKN015 OVC030
  FM121200 22017G25KT P6SM VCSH OVC030
  FM121700 20012G18KT P6SM OVC035
  FM122100 20015G20KT P6SM VCSH BKN040
  FM130100 19013KT P6SM -SHRA SCT025 OVC040
  FM130400 18012KT 6SM RA BR OVC030
N 4 21' KBFI TAF KBFI 112337Z 1200/1224 17012G20KT 5SM -RA BR BKN010 OVC030
  FM120300 19010G18KT P6SM -SHRA BKN012 OVC025
  FM121200 20010G18KT P6SM VCSH OVC030
  FM121700 17010G15KT P6SM OVC040
  FM122100 17012G18KT P6SM VCSH BKN040
W 18 444' KPWT TAF KPWT 112337Z 1200/1224 20016G25KT 6SM -RA BR OVC004
  FM120200 19017G27KT P6SM -SHRA BKN005 OVC012
  FM121100 20012G20KT P6SM VCSH BKN010 OVC025
  FM121600 19010G15KT P6SM SCT012 OVC020
  FM122000 19016G22KT P6SM VCSH BKN030
S 19 322' KTCM TAF
  AMD KTCM 120114Z 1201/1303 20012G18KT 9000 -RA OVC030 520009 QNH2966INS
  BECMG 1202/1203 25009KT 9000 -SHRA BKN020 QNH2965INS
  BECMG 1204/1205 25009KT 9999 NSW SCT020 QNH2974INS
  BECMG 1221/1222 20009KT 9000 -RA OVC050 QNH3020INS TX10/1201Z TN02/1213Z
SW 24 300' KGRF TAF
  AMD KGRF 112228Z 1122/1303 20009KT 9000 -RA OVC030 620504 QNH2966INS
  TEMPO 1122/1202 20012G18KT BKN015
  BECMG 1201/1202 25009KT 9000 -SHRA BKN020 610405 QNH2965INS
  BECMG 1204/1205 25009KT 9999 NSW SCT020 QNH2974INS
  BECMG 1221/1222 20009KT 9000 -RA OVC050 620504 QNH3020INS TX10/1123Z TN02/1213Z
N 27 607' KPAE KPAE 112337Z 1200/1224 13015G25KT 6SM -RA OVC008
  FM120300 21015G22KT P6SM -SHRA BKN009 OVC015
  FM121200 24015KT P6SM VCSH OVC020
  FM121700 20012KT P6SM OVC030
  FM122100 20015G22KT P6SM VCSH BKN030
SW 37 207' KOLM KOLM 112337Z 1200/1224 20012G24KT 5SM -RA BR SCT010 BKN030
  FM120200 23015G22KT P6SM -SHRA BKN015 OVC030
  FM121200 24011KT P6SM VCSH OVC030
  FM121700 21008KT P6SM OVC035
  FM122000 21012G18KT P6SM VCSH BKN025
N 55 47' KNUW TAF TAF KNUW 1007/1107 14012G18KT 8000 -SHRA SCT012 BKN030 OVC060 640509 641404 520003 550306 QNH3003INS
  TEMPO 1007/1012 4800 RA SCT005 BKN009 OVC050
  FM101200 14010KT 8000 -SHRA BR FEW005 SCT050 BKN080 OVC120 640809 500000 QNH3011INS
  TEMPO 1012/1015 14006KT 3200 SHRA BR BKN005 BKN050 OVC080
  FM101600 14009KT 8000 BR VCSH FEW008 BKN050 BKN080 640507 QNH3019INS
  TEMPO 1103/1107 14015G24KT T04/1013Z T10/1023Z FS30135
NW 62 291' KCLM TAF KCLM 112337Z 1200/1224 28010KT 5SM -RA BR SCT008 OVC030
  FM120200 27012KT P6SM -SHRA BKN015 OVC030
  FM120700 27015G25KT P6SM VCSH BKN035 BKN050
  FM121700 26010KT P6SM BKN060
  FM122100 33008KT P6SM VCSH SCT030 BKN050
SW 72 17' KHQM KHQM 112337Z 1200/1224 20015G22KT 4SM -RA BR SCT007 BKN030 OVC050
  FM120100 23014G22KT 5SM -SHRA BR BKN025 OVC050
  FM120600 25018G25KT P6SM VCSH OVC050
  FM121200 26012KT P6SM BKN050
  FM121900 18012G18KT P6SM VCSH SCT025 OVC040
N 81 171' KBLI KBLI 112337Z 1200/1224 17017G30KT P6SM VCSH BKN025 OVC050
  TEMPO 1200/1202 -RA BKN015
  FM120200 17015G25KT P6SM VCSH BKN027 OVC040
  FM120800 18010G20KT P6SM VCSH BKN030 BKN050
  FM121700 17012KT P6SM BKN050
  FM122000 17012G20KT P6SM VCSH OVC040
E 85 1248' KEAT TAF KEAT 112355Z 1200/1224 VRB03KT 6SM -FZRA FEW005 OVC012
  FM120200 31015G27KT P6SM VCSH BKN015
  FM120600 30022G30KT P6SM OVC050
  FM121000 30022G30KT P6SM SCT120
  FM121600 30012KT P6SM SCT150 BKN200
SE 89 1098' KYKM TAF
  AMD KYKM 120014Z 1200/1224 25009KT 6SM -SHRA BR OVC015
  FM120400 27015G25KT P6SM SCT090 BKN120
  FM121700 28010G18KT P6SM FEW060 BKN200
Area forecast:
000
FAUS46 KKCI 101945
FA6W  
SFOC FA 101945
SYNOPSIS AND VFR CLDS/WX
SYNOPSIS VALID UNTIL 111400
CLDS/WX VALID UNTIL 110800...OTLK VALID 110800-111400
WA OR CA AND CSTL WTRS
.
SEE AIRMET SIERRA FOR IFR CONDS AND MTN OBSCN.
TS IMPLY SEV OR GTR TURB SEV ICE LLWS AND IFR CONDS.
NON MSL HGTS DENOTED BY AGL OR CIG.
.
SYNOPSIS...UPR LVL TROF WAS LOCATED NR 130W. MOIST SWLY FLOW
EXTDS FROM PAC NW EWD INTO NRN ROCKIES. HIGH PRES RIDGE WAS OVR
MUCH OF THE REST OF THE AREA. BY 14Z...UPR LVL TROF WILL EXTD
FROM WA-OR SWD INTO CA.  ..STREIB..
.
WA CASCDS WWD
CSTL SXNS
CSTLN-INLAND...SCT-BKN025 BKN035-050 TOPS 120-140. ISOL -SHRA.
   OTLK...MVFR CIGS SHRA BR.
PUGET SOUND-INTR VLY...SCT-BKN020 BKN-OVC035-050 TOPS 160 BKN CI.
   WDLY SCT -SHRA. OTLK...MVFR CIGS SHRA.
CASCDS...BKN-OVC050-070 TOPS FL180. BKN CI ABV. WDLY SCT -SHRA.
   OTLK...MVFR CIGS SHRA.
.
WA E OF CASCDS
CNTRL WA...SCT140 OVC CI. BECMG 2302 SCT080 BKN120 LYRD FL240.
   OTLK...VFR.
ERN WA...SCT-BKN140-160 LYRD FL240. BECMG 0508 BKN080 OVC120
   LYRD FL240 ISOL -SHRA DVLPG. OTLK...VFR.
.
OR CASCDS WWD
CSTL SXNS
CSTLN-INLAND...SCT-BKN020 BKN-OVC035-050 TOPS FL180. WDLY SCT
   -SHRA. OTLK...MVFR CIGS SHRA.
WILLAMETTE VLY/SWRN INTR...SCT-BKN020 BKN-OVC035-050 TOPS FL180.
   WDLY SCT -SHRA. OTLK...MVFR CIGS SHRA.
CASCDS...SCT-BKN060 BKN-OVC080-100 TOPS FL180 ISOL -SHRA.
   OTLK...MVFR CIGS SHRA.
.
OR E OF CASCDS
CNTRL...SCT100-120 BKN150 LYRD FL240. OTLK...VFR.
ERN...SCT130-150 BKN CI. BECMG 0205 OVC120-140 LYRD FL240.
   OTLK...VFR.
.
NRN CA...STS-SAC-TVL LN NWD
CSTL SXNS...
   FOT NWD...SCT025 BKN CI ABV. BECMG 0205 SCT020 OVC050 TOPS
      160. ISOL -SHRA. OTLK...IFR CIGS.
   S OF FOT...SCT-BKN010 TOPS 030-040. OTLK...IFR CIGS.
REST OF AREA...SKC OCNL SCT CI. OCNL VYS 3-5SM FU HZ.
   OTLK...VFR.
SAC VLY...
   NRN AND CNTRL SXNS...SKC. OTLK...VFR.
   SRN SXNS...SKC. OCNL VIS 3-5SM FU HZ. OTLK...MVFR FU HZ.
SHASTA-SISKIYOUS-NERN CA...
NRN SIERRAS...SKC OCNL SCT CI. WINDS SLY G25KT. OTLK...VFR WIND.
.
CNTRL CA
CSTL SXNS...
   CSTLN...SKC OCNL SCT010. BECMG 0508 OCNL CIGS BKN-SCT010 TOPS
      020-030. OTLK...IFR CIGS.
   INLAND...SKC. OTLK...VFR BECMG 1114 IFR CIGS BR.
SAN JOAQUIN VLY...SKC. OTLK...VFR.
SRN SIERRAS..SKC. OTLK...VFR.
.
SRN CA..VBG-NID-60NNW BIH LN SWD
CSTL SXNS...
   CSTLN...
      EXTRM SRN SXNS...SKC. BECMG 0205 SCT010. BECMG 0508 CIGS
         BKN-OVC010 TOPS 030. OTLK...IFR CIGS.
      REST OF AREA...SKC. OTLK...VFR BECMG 0811 IFR CIGS BR.
   INLAND...SKC OCNL FEW CI. OTLK...VFR.
INTR MTNS-MOJAVE-SRN DESERTS...SKC OCNL FEW CI. OTLK...VFR.
.
CSTL WTRS
WA...SCT-BKN035-050 TOPS 100-120. ISOL -SHRA. OTLK...VFR.
OR...
NWRN HLF...SCT-BKN035-050 TOPS 100-120. ISOL -SHRA. OTLK...VFR.
SERN HLF...SCT-BKN025 BKN035-050 TOPS FL180 BKN CI ABV. WDLY SCT
   -SHRA. OTLK...MVFR CIGS SHRA.
CA...
NRN CA...
   FOT NWD...SCT025 BKN CI ABV. BECMG 0205 SCT020 OVC050 TOPS
      160. ISOL -SHRA. OTLK...IFR CIGS.
   S OF FOT...SCT-BKN010 TOPS 030-040. OTLK...IFR CIGS.
CNTRL CA...SCT-BKN010 TOPS 030-040. OTLK...IFR CIGS.
SRN CA...
   OUTER CSTL WTRS...CIGS BKN010-020 TOPS 030-050.
      OTLK...IFR CIGS.
   ADJ CSTL WTRS...SKC. OCNL AGL SCT010. OTLK...VFR BECMG 0811
      IFR CIGS BR.
.
THE AREA FORECAST WILL TERMINATE AT 2359Z ON 10 OCTOBER 2017. IN
PLACE OF THE AREA FORECAST...PLEASE SEE THE GRAPHICAL FORECAST AT
WWW.AVIATIONWEATHER.GOV/GFA. GRAPHICAL AND TEXT AIRMETS WILL
CONTINUE AS REGULARLY SCHEDULED.
....

Shortcut to this page: http://wxbay.com.

Data may contain errors.